sensor_id;sensor_type;location;lat;lon;timestamp;pressure;altitude;pressure_sealevel;temperature;humidity
42727;BME280;28372;56.832;60.658;2023-04-16T00:02:15;98153.03;;;3.87;26.30
42727;BME280;28372;56.832;60.658;2023-04-16T00:04:43;98147.50;;;3.84;26.13
42727;BME280;28372;56.832;60.658;2023-04-16T00:07:14;98149.06;;;3.93;26.24
42727;BME280;28372;56.832;60.658;2023-04-16T00:09:41;98156.00;;;3.86;26.14
42727;BME280;28372;56.832;60.658;2023-04-16T00:12:09;98157.88;;;3.85;26.42
42727;BME280;28372;56.832;60.658;2023-04-16T00:14:37;98153.94;;;3.83;26.69
42727;BME280;28372;56.832;60.658;2023-04-16T00:17:04;98163.56;;;3.84;26.38
42727;BME280;28372;56.832;60.658;2023-04-16T00:19:32;98169.22;;;3.82;26.48
42727;BME280;28372;56.832;60.658;2023-04-16T00:21:59;98171.13;;;3.82;26.71
42727;BME280;28372;56.832;60.658;2023-04-16T00:24:27;98167.50;;;3.77;26.46
42727;BME280;28372;56.832;60.658;2023-04-16T00:26:54;98167.84;;;3.76;26.96
42727;BME280;28372;56.832;60.658;2023-04-16T00:29:23;98179.00;;;3.78;26.66
42727;BME280;28372;56.832;60.658;2023-04-16T00:31:50;98177.41;;;3.77;26.77
42727;BME280;28372;56.832;60.658;2023-04-16T00:34:18;98181.81;;;3.73;26.97
42727;BME280;28372;56.832;60.658;2023-04-16T00:36:45;98167.19;;;3.62;26.71
42727;BME280;28372;56.832;60.658;2023-04-16T00:39:13;98177.75;;;3.67;26.95
42727;BME280;28372;56.832;60.658;2023-04-16T00:41:42;98177.09;;;3.70;27.25
42727;BME280;28372;56.832;60.658;2023-04-16T00:44:09;98175.84;;;3.67;27.30
42727;BME280;28372;56.832;60.658;2023-04-16T00:46:37;98175.06;;;3.58;27.18
42727;BME280;28372;56.832;60.658;2023-04-16T00:49:05;98177.13;;;3.61;27.56
42727;BME280;28372;56.832;60.658;2023-04-16T00:51:34;98164.06;;;3.42;27.34
42727;BME280;28372;56.832;60.658;2023-04-16T00:54:02;98185.28;;;3.65;27.54
42727;BME280;28372;56.832;60.658;2023-04-16T00:56:30;98190.31;;;3.57;27.15
42727;BME280;28372;56.832;60.658;2023-04-16T00:58:59;98186.88;;;3.57;27.67
42727;BME280;28372;56.832;60.658;2023-04-16T01:01:27;98189.56;;;3.48;28.08
42727;BME280;28372;56.832;60.658;2023-04-16T01:03:55;98199.44;;;3.48;27.50
42727;BME280;28372;56.832;60.658;2023-04-16T01:06:23;98198.19;;;3.54;27.53
42727;BME280;28372;56.832;60.658;2023-04-16T01:08:50;98208.09;;;3.53;28.23
42727;BME280;28372;56.832;60.658;2023-04-16T01:11:18;98211.56;;;3.54;27.72
42727;BME280;28372;56.832;60.658;2023-04-16T01:13:45;98210.44;;;3.55;28.04
42727;BME280;28372;56.832;60.658;2023-04-16T01:16:12;98214.06;;;3.59;28.04
42727;BME280;28372;56.832;60.658;2023-04-16T01:18:40;98211.41;;;3.59;27.95
42727;BME280;28372;56.832;60.658;2023-04-16T01:21:08;98224.16;;;3.62;28.47
42727;BME280;28372;56.832;60.658;2023-04-16T01:23:35;98217.56;;;3.59;28.00
42727;BME280;28372;56.832;60.658;2023-04-16T01:26:03;98214.69;;;3.65;27.93
42727;BME280;28372;56.832;60.658;2023-04-16T01:28:31;98226.97;;;3.66;28.41
42727;BME280;28372;56.832;60.658;2023-04-16T01:30:58;98227.16;;;3.69;28.40
42727;BME280;28372;56.832;60.658;2023-04-16T01:33:39;98231.41;;;3.70;28.13
42727;BME280;28372;56.832;60.658;2023-04-16T01:36:07;98230.47;;;3.75;27.84
42727;BME280;28372;56.832;60.658;2023-04-16T01:38:34;98243.50;;;3.76;28.20
42727;BME280;28372;56.832;60.658;2023-04-16T01:41:02;98241.31;;;3.78;28.16
42727;BME280;28372;56.832;60.658;2023-04-16T01:43:29;98252.16;;;3.82;28.60
42727;BME280;28372;56.832;60.658;2023-04-16T01:46:28;98258.00;;;4.02;28.73
42727;BME280;28372;56.832;60.658;2023-04-16T01:48:57;98255.16;;;3.89;28.26
42727;BME280;28372;56.832;60.658;2023-04-16T01:51:25;98259.88;;;3.92;28.78
42727;BME280;28372;56.832;60.658;2023-04-16T01:53:53;98257.19;;;3.92;28.61
42727;BME280;28372;56.832;60.658;2023-04-16T01:56:21;98255.78;;;3.95;28.92
42727;BME280;28372;56.832;60.658;2023-04-16T01:58:49;98262.25;;;4.03;28.84
42727;BME280;28372;56.832;60.658;2023-04-16T02:01:18;98255.94;;;3.99;28.96
42727;BME280;28372;56.832;60.658;2023-04-16T02:03:46;98255.63;;;4.09;29.47
42727;BME280;28372;56.832;60.658;2023-04-16T02:06:14;98260.81;;;4.14;29.02
42727;BME280;28372;56.832;60.658;2023-04-16T02:08:42;98264.25;;;4.23;28.70
42727;BME280;28372;56.832;60.658;2023-04-16T02:11:10;98253.53;;;4.23;29.15
42727;BME280;28372;56.832;60.658;2023-04-16T02:13:38;98258.75;;;4.28;29.02
42727;BME280;28372;56.832;60.658;2023-04-16T02:16:05;98270.22;;;4.38;29.01
42727;BME280;28372;56.832;60.658;2023-04-16T02:18:51;98265.78;;;4.51;28.76
42727;BME280;28372;56.832;60.658;2023-04-16T02:21:21;98269.09;;;4.56;29.23
42727;BME280;28372;56.832;60.658;2023-04-16T02:23:49;98264.16;;;4.67;28.99
42727;BME280;28372;56.832;60.658;2023-04-16T02:26:23;98265.34;;;4.87;28.96
42727;BME280;28372;56.832;60.658;2023-04-16T02:28:55;98270.72;;;5.47;29.26
42727;BME280;28372;56.832;60.658;2023-04-16T02:31:27;98270.16;;;6.38;28.60
42727;BME280;28372;56.832;60.658;2023-04-16T02:33:56;98273.41;;;7.39;27.05
42727;BME280;28372;56.832;60.658;2023-04-16T02:36:24;98275.38;;;8.36;25.98
42727;BME280;28372;56.832;60.658;2023-04-16T02:38:52;98278.66;;;9.21;25.60
42727;BME280;28372;56.832;60.658;2023-04-16T02:41:20;98278.75;;;10.16;24.19
42727;BME280;28372;56.832;60.658;2023-04-16T02:43:47;98267.56;;;10.79;23.57
42727;BME280;28372;56.832;60.658;2023-04-16T02:46:15;98282.03;;;11.68;22.49
42727;BME280;28372;56.832;60.658;2023-04-16T02:48:43;98288.66;;;12.31;21.92
42727;BME280;28372;56.832;60.658;2023-04-16T02:51:10;98278.84;;;13.01;21.21
42727;BME280;28372;56.832;60.658;2023-04-16T02:53:38;98287.50;;;13.66;20.83
42727;BME280;28372;56.832;60.658;2023-04-16T02:56:06;98293.19;;;14.28;19.91
42727;BME280;28372;56.832;60.658;2023-04-16T02:58:33;98287.16;;;14.88;19.33
42727;BME280;28372;56.832;60.658;2023-04-16T03:01:01;98289.06;;;15.49;18.99
42727;BME280;28372;56.832;60.658;2023-04-16T03:03:29;98287.41;;;15.99;18.06
42727;BME280;28372;56.832;60.658;2023-04-16T03:05:56;98298.38;;;16.66;17.54
42727;BME280;28372;56.832;60.658;2023-04-16T03:08:24;98295.41;;;17.05;17.52
42727;BME280;28372;56.832;60.658;2023-04-16T03:10:51;98300.84;;;17.54;17.04
42727;BME280;28372;56.832;60.658;2023-04-16T03:13:22;98307.44;;;17.98;16.76
42727;BME280;28372;56.832;60.658;2023-04-16T03:15:49;98295.56;;;18.43;16.40
42727;BME280;28372;56.832;60.658;2023-04-16T03:18:17;98304.16;;;19.00;15.86
42727;BME280;28372;56.832;60.658;2023-04-16T03:20:44;98298.69;;;19.47;15.64
42727;BME280;28372;56.832;60.658;2023-04-16T03:23:16;98297.84;;;19.71;15.03
42727;BME280;28372;56.832;60.658;2023-04-16T03:25:44;98298.47;;;20.22;15.18
42727;BME280;28372;56.832;60.658;2023-04-16T03:28:16;98295.03;;;20.54;15.00
42727;BME280;28372;56.832;60.658;2023-04-16T03:30:51;98304.09;;;20.71;14.71
42727;BME280;28372;56.832;60.658;2023-04-16T03:33:19;98299.03;;;21.36;14.38
42727;BME280;28372;56.832;60.658;2023-04-16T03:35:54;98299.72;;;21.56;14.14
42727;BME280;28372;56.832;60.658;2023-04-16T03:38:23;98309.69;;;22.09;13.87
42727;BME280;28372;56.832;60.658;2023-04-16T03:40:54;98300.88;;;22.44;13.63
42727;BME280;28372;56.832;60.658;2023-04-16T03:43:22;98307.28;;;22.79;13.37
42727;BME280;28372;56.832;60.658;2023-04-16T03:45:50;98310.34;;;23.20;13.17
42727;BME280;28372;56.832;60.658;2023-04-16T03:48:20;98303.13;;;23.48;13.07
42727;BME280;28372;56.832;60.658;2023-04-16T03:50:48;98305.53;;;23.81;12.92
42727;BME280;28372;56.832;60.658;2023-04-16T03:53:18;98303.56;;;24.04;12.60
42727;BME280;28372;56.832;60.658;2023-04-16T03:55:53;98315.38;;;24.26;12.20
42727;BME280;28372;56.832;60.658;2023-04-16T03:58:22;98295.22;;;24.70;12.09
42727;BME280;28372;56.832;60.658;2023-04-16T04:00:57;98307.03;;;24.71;12.11
42727;BME280;28372;56.832;60.658;2023-04-16T04:03:25;98305.44;;;25.10;12.11
42727;BME280;28372;56.832;60.658;2023-04-16T04:06:06;98305.47;;;25.20;11.73
42727;BME280;28372;56.832;60.658;2023-04-16T04:08:36;98298.94;;;25.63;11.83
42727;BME280;28372;56.832;60.658;2023-04-16T04:11:05;98306.91;;;25.98;11.64
42727;BME280;28372;56.832;60.658;2023-04-16T04:13:34;98312.44;;;26.26;11.08
42727;BME280;28372;56.832;60.658;2023-04-16T04:16:03;98320.72;;;26.45;11.06
42727;BME280;28372;56.832;60.658;2023-04-16T04:18:31;98318.63;;;26.73;11.08
42727;BME280;28372;56.832;60.658;2023-04-16T04:20:59;98317.78;;;26.91;10.94
42727;BME280;28372;56.832;60.658;2023-04-16T04:23:43;98321.44;;;26.97;10.81
42727;BME280;28372;56.832;60.658;2023-04-16T04:26:13;98325.63;;;27.26;10.92
42727;BME280;28372;56.832;60.658;2023-04-16T04:28:41;98317.88;;;27.55;10.54
42727;BME280;28372;56.832;60.658;2023-04-16T04:31:16;98311.88;;;27.71;10.28
42727;BME280;28372;56.832;60.658;2023-04-16T04:33:44;98319.78;;;27.88;10.28
42727;BME280;28372;56.832;60.658;2023-04-16T04:36:12;98316.44;;;27.98;10.48
42727;BME280;28372;56.832;60.658;2023-04-16T04:38:41;98313.03;;;28.03;10.22
42727;BME280;28372;56.832;60.658;2023-04-16T04:41:08;98314.09;;;28.21;10.16
42727;BME280;28372;56.832;60.658;2023-04-16T04:43:37;98314.38;;;28.38;9.92
42727;BME280;28372;56.832;60.658;2023-04-16T04:46:05;98308.03;;;28.67;10.25
42727;BME280;28372;56.832;60.658;2023-04-16T04:48:33;98314.59;;;29.00;9.94
42727;BME280;28372;56.832;60.658;2023-04-16T04:51:01;98305.22;;;29.38;9.61
42727;BME280;28372;56.832;60.658;2023-04-16T04:53:34;98304.03;;;29.45;9.39
42727;BME280;28372;56.832;60.658;2023-04-16T04:56:04;98313.00;;;29.76;9.53
42727;BME280;28372;56.832;60.658;2023-04-16T04:58:39;98311.97;;;29.94;9.26
42727;BME280;28372;56.832;60.658;2023-04-16T05:01:07;98308.72;;;30.01;9.34
42727;BME280;28372;56.832;60.658;2023-04-16T05:03:35;98315.47;;;30.15;9.08
42727;BME280;28372;56.832;60.658;2023-04-16T05:06:03;98312.28;;;30.28;9.22
42727;BME280;28372;56.832;60.658;2023-04-16T05:08:30;98312.81;;;30.32;8.96
42727;BME280;28372;56.832;60.658;2023-04-16T05:10:58;98317.56;;;30.52;9.11
42727;BME280;28372;56.832;60.658;2023-04-16T05:13:25;98308.72;;;30.59;9.25
42727;BME280;28372;56.832;60.658;2023-04-16T05:15:53;98314.19;;;30.74;9.00
42727;BME280;28372;56.832;60.658;2023-04-16T05:18:20;98306.84;;;30.77;9.04
42727;BME280;28372;56.832;60.658;2023-04-16T05:20:48;98307.69;;;30.94;8.67
42727;BME280;28372;56.832;60.658;2023-04-16T05:23:15;98309.53;;;31.03;8.94
42727;BME280;28372;56.832;60.658;2023-04-16T05:25:43;98304.78;;;31.09;8.59
42727;BME280;28372;56.832;60.658;2023-04-16T05:28:10;98314.50;;;31.25;9.03
42727;BME280;28372;56.832;60.658;2023-04-16T05:30:38;98316.31;;;31.34;8.80
42727;BME280;28372;56.832;60.658;2023-04-16T05:33:05;98313.56;;;31.45;8.84
42727;BME280;28372;56.832;60.658;2023-04-16T05:35:33;98311.56;;;31.57;8.65
42727;BME280;28372;56.832;60.658;2023-04-16T05:38:01;98305.31;;;31.79;8.19
42727;BME280;28372;56.832;60.658;2023-04-16T05:40:30;98309.88;;;31.76;8.40
42727;BME280;28372;56.832;60.658;2023-04-16T05:42:58;98311.66;;;31.74;8.47
42727;BME280;28372;56.832;60.658;2023-04-16T05:45:26;98309.91;;;31.82;8.79
42727;BME280;28372;56.832;60.658;2023-04-16T05:47:54;98299.47;;;31.88;8.05
42727;BME280;28372;56.832;60.658;2023-04-16T05:50:21;98306.88;;;31.97;8.40
42727;BME280;28372;56.832;60.658;2023-04-16T05:52:49;98303.88;;;32.18;8.28
42727;BME280;28372;56.832;60.658;2023-04-16T05:55:16;98312.78;;;32.39;7.92
42727;BME280;28372;56.832;60.658;2023-04-16T05:57:44;98305.41;;;32.24;8.43
42727;BME280;28372;56.832;60.658;2023-04-16T06:00:11;98300.50;;;31.91;7.94
42727;BME280;28372;56.832;60.658;2023-04-16T06:02:39;98302.78;;;31.98;8.40
42727;BME280;28372;56.832;60.658;2023-04-16T06:05:07;98296.22;;;32.01;8.49
42727;BME280;28372;56.832;60.658;2023-04-16T06:07:36;98299.75;;;32.07;8.26
42727;BME280;28372;56.832;60.658;2023-04-16T06:10:10;98310.75;;;32.17;8.48
42727;BME280;28372;56.832;60.658;2023-04-16T06:12:37;98306.94;;;32.48;7.94
42727;BME280;28372;56.832;60.658;2023-04-16T06:15:05;98311.25;;;32.55;8.10
42727;BME280;28372;56.832;60.658;2023-04-16T06:17:35;98307.94;;;32.73;7.98
42727;BME280;28372;56.832;60.658;2023-04-16T06:20:03;98309.22;;;32.78;7.77
42727;BME280;28372;56.832;60.658;2023-04-16T06:22:31;98310.50;;;32.77;7.78
42727;BME280;28372;56.832;60.658;2023-04-16T06:24:59;98309.44;;;32.91;7.63
42727;BME280;28372;56.832;60.658;2023-04-16T06:27:27;98295.97;;;32.50;7.83
42727;BME280;28372;56.832;60.658;2023-04-16T06:29:56;98310.25;;;32.52;7.96
42727;BME280;28372;56.832;60.658;2023-04-16T06:32:24;98304.88;;;32.49;7.91
42727;BME280;28372;56.832;60.658;2023-04-16T06:34:51;98298.94;;;31.73;8.08
42727;BME280;28372;56.832;60.658;2023-04-16T06:37:19;98292.09;;;31.14;8.25
42727;BME280;28372;56.832;60.658;2023-04-16T06:39:46;98304.72;;;31.52;8.60
42727;BME280;28372;56.832;60.658;2023-04-16T06:42:14;98304.53;;;31.73;8.41
42727;BME280;28372;56.832;60.658;2023-04-16T06:44:42;98301.53;;;31.93;8.45
42727;BME280;28372;56.832;60.658;2023-04-16T06:47:09;98299.56;;;32.22;8.39
42727;BME280;28372;56.832;60.658;2023-04-16T06:49:37;98299.28;;;32.37;8.52
42727;BME280;28372;56.832;60.658;2023-04-16T06:52:06;98310.50;;;32.37;8.06
42727;BME280;28372;56.832;60.658;2023-04-16T06:54:33;98301.84;;;32.24;8.10
42727;BME280;28372;56.832;60.658;2023-04-16T06:57:01;98314.59;;;32.42;8.08
42727;BME280;28372;56.832;60.658;2023-04-16T06:59:28;98303.38;;;32.53;7.89
42727;BME280;28372;56.832;60.658;2023-04-16T07:01:56;98290.66;;;32.41;7.75
42727;BME280;28372;56.832;60.658;2023-04-16T07:04:24;98294.03;;;31.56;8.27
42727;BME280;28372;56.832;60.658;2023-04-16T07:06:52;98290.41;;;30.90;8.37
42727;BME280;28372;56.832;60.658;2023-04-16T07:09:19;98283.19;;;30.72;8.71
42727;BME280;28372;56.832;60.658;2023-04-16T07:11:50;98293.09;;;31.11;8.69
42727;BME280;28372;56.832;60.658;2023-04-16T07:14:18;98285.38;;;30.56;8.80
42727;BME280;28372;56.832;60.658;2023-04-16T07:16:45;98288.97;;;29.78;9.01
42727;BME280;28372;56.832;60.658;2023-04-16T07:19:13;98292.44;;;29.11;9.15
42727;BME280;28372;56.832;60.658;2023-04-16T07:21:43;98289.53;;;28.34;9.33
42727;BME280;28372;56.832;60.658;2023-04-16T07:24:12;98285.91;;;28.28;9.90
42727;BME280;28372;56.832;60.658;2023-04-16T07:26:39;98278.38;;;28.49;9.77
42727;BME280;28372;56.832;60.658;2023-04-16T07:29:07;98278.97;;;28.53;9.78
42727;BME280;28372;56.832;60.658;2023-04-16T07:31:35;98281.66;;;28.48;10.23
42727;BME280;28372;56.832;60.658;2023-04-16T07:34:03;98275.44;;;28.23;10.28
42727;BME280;28372;56.832;60.658;2023-04-16T07:36:30;98270.50;;;27.88;10.40
42727;BME280;28372;56.832;60.658;2023-04-16T07:38:58;98266.47;;;26.87;10.25
42727;BME280;28372;56.832;60.658;2023-04-16T07:41:26;98261.59;;;26.29;10.79
42727;BME280;28372;56.832;60.658;2023-04-16T07:43:55;98263.38;;;25.80;11.02
42727;BME280;28372;56.832;60.658;2023-04-16T07:46:23;98253.84;;;25.63;11.26
42727;BME280;28372;56.832;60.658;2023-04-16T07:48:59;98251.69;;;25.39;11.80
42727;BME280;28372;56.832;60.658;2023-04-16T07:51:26;98243.66;;;25.23;11.73
42727;BME280;28372;56.832;60.658;2023-04-16T07:53:54;98249.19;;;25.13;11.50
42727;BME280;28372;56.832;60.658;2023-04-16T07:56:21;98244.22;;;24.90;11.62
42727;BME280;28372;56.832;60.658;2023-04-16T07:58:49;98238.81;;;24.68;11.68
42727;BME280;28372;56.832;60.658;2023-04-16T08:01:16;98248.28;;;24.26;11.98
42727;BME280;28372;56.832;60.658;2023-04-16T08:03:44;98236.94;;;23.80;11.87
42727;BME280;28372;56.832;60.658;2023-04-16T08:06:12;98241.41;;;23.42;12.45
42727;BME280;28372;56.832;60.658;2023-04-16T08:08:39;98227.25;;;23.18;12.48
42727;BME280;28372;56.832;60.658;2023-04-16T08:11:07;98234.78;;;22.91;12.62
42727;BME280;28372;56.832;60.658;2023-04-16T08:13:35;98220.13;;;22.82;12.55
42727;BME280;28372;56.832;60.658;2023-04-16T08:16:03;98219.94;;;22.76;12.86
42727;BME280;28372;56.832;60.658;2023-04-16T08:18:33;98224.50;;;22.57;12.85
42727;BME280;28372;56.832;60.658;2023-04-16T08:21:01;98222.94;;;22.43;12.99
42727;BME280;28372;56.832;60.658;2023-04-16T08:23:28;98212.91;;;22.36;12.95
42727;BME280;28372;56.832;60.658;2023-04-16T08:25:56;98218.34;;;22.11;12.80
42727;BME280;28372;56.832;60.658;2023-04-16T08:28:23;98213.63;;;21.98;13.14
42727;BME280;28372;56.832;60.658;2023-04-16T08:30:51;98205.22;;;21.89;13.38
42727;BME280;28372;56.832;60.658;2023-04-16T08:33:20;98214.06;;;21.97;13.31
42727;BME280;28372;56.832;60.658;2023-04-16T08:35:47;98209.28;;;21.71;13.36
42727;BME280;28372;56.832;60.658;2023-04-16T08:38:15;98211.78;;;21.36;13.72
42727;BME280;28372;56.832;60.658;2023-04-16T08:40:44;98210.25;;;21.19;13.63
42727;BME280;28372;56.832;60.658;2023-04-16T08:43:13;98215.00;;;21.02;13.88
42727;BME280;28372;56.832;60.658;2023-04-16T08:45:42;98207.13;;;20.87;13.76
42727;BME280;28372;56.832;60.658;2023-04-16T08:48:11;98208.81;;;20.65;13.74
42727;BME280;28372;56.832;60.658;2023-04-16T08:50:39;98207.34;;;20.60;13.92
42727;BME280;28372;56.832;60.658;2023-04-16T08:53:10;98208.44;;;20.30;14.20
42727;BME280;28372;56.832;60.658;2023-04-16T08:55:53;98208.16;;;19.88;14.58
42727;BME280;28372;56.832;60.658;2023-04-16T08:58:32;98199.28;;;19.60;14.57
42727;BME280;28372;56.832;60.658;2023-04-16T09:01:05;98208.28;;;19.40;14.76
42727;BME280;28372;56.832;60.658;2023-04-16T09:03:33;98202.00;;;19.20;14.86
42727;BME280;28372;56.832;60.658;2023-04-16T09:06:03;98206.44;;;18.90;14.97
42727;BME280;28372;56.832;60.658;2023-04-16T09:08:33;98210.78;;;18.87;15.29
42727;BME280;28372;56.832;60.658;2023-04-16T09:11:02;98211.19;;;18.58;15.38
42727;BME280;28372;56.832;60.658;2023-04-16T09:13:30;98197.84;;;18.37;15.42
42727;BME280;28372;56.832;60.658;2023-04-16T09:16:02;98188.44;;;18.10;15.46
42727;BME280;28372;56.832;60.658;2023-04-16T09:18:32;98192.94;;;17.93;15.31
42727;BME280;28372;56.832;60.658;2023-04-16T09:21:02;98202.59;;;17.71;15.47
42727;BME280;28372;56.832;60.658;2023-04-16T09:23:32;98198.38;;;17.62;15.42
42727;BME280;28372;56.832;60.658;2023-04-16T09:26:00;98190.53;;;17.30;15.73
42727;BME280;28372;56.832;60.658;2023-04-16T09:28:45;98192.88;;;17.28;15.90
42727;BME280;28372;56.832;60.658;2023-04-16T09:31:15;98182.47;;;16.70;15.99
42727;BME280;28372;56.832;60.658;2023-04-16T09:34:02;98182.59;;;17.05;16.64
42727;BME280;28372;56.832;60.658;2023-04-16T09:36:31;98179.94;;;16.45;16.67
42727;BME280;28372;56.832;60.658;2023-04-16T09:38:59;98176.13;;;16.32;16.73
42727;BME280;28372;56.832;60.658;2023-04-16T09:41:29;98179.69;;;16.21;17.29
42727;BME280;28372;56.832;60.658;2023-04-16T09:44:02;98176.63;;;16.16;17.03
42727;BME280;28372;56.832;60.658;2023-04-16T09:46:40;98175.97;;;15.93;17.16
42727;BME280;28372;56.832;60.658;2023-04-16T09:49:17;98165.81;;;15.98;17.07
42727;BME280;28372;56.832;60.658;2023-04-16T09:51:47;98167.13;;;15.61;17.46
42727;BME280;28372;56.832;60.658;2023-04-16T09:54:20;98157.88;;;15.36;17.46
42727;BME280;28372;56.832;60.658;2023-04-16T09:56:48;98148.94;;;15.21;17.57
42727;BME280;28372;56.832;60.658;2023-04-16T09:59:16;98154.47;;;14.85;17.62
42727;BME280;28372;56.832;60.658;2023-04-16T10:01:44;98152.13;;;14.51;18.04
42727;BME280;28372;56.832;60.658;2023-04-16T10:04:16;98145.91;;;14.44;17.84
42727;BME280;28372;56.832;60.658;2023-04-16T10:06:43;98143.19;;;14.36;18.39
42727;BME280;28372;56.832;60.658;2023-04-16T10:09:14;98143.97;;;14.22;18.74
42727;BME280;28372;56.832;60.658;2023-04-16T10:11:42;98148.22;;;14.23;18.86
42727;BME280;28372;56.832;60.658;2023-04-16T10:14:10;98132.66;;;14.10;19.04
42727;BME280;28372;56.832;60.658;2023-04-16T10:16:40;98147.03;;;14.03;18.93
42727;BME280;28372;56.832;60.658;2023-04-16T10:19:08;98141.97;;;13.98;19.05
42727;BME280;28372;56.832;60.658;2023-04-16T10:21:36;98139.63;;;13.93;19.14
42727;BME280;28372;56.832;60.658;2023-04-16T10:24:04;98122.84;;;13.62;19.42
42727;BME280;28372;56.832;60.658;2023-04-16T10:26:32;98127.88;;;13.60;19.62
42727;BME280;28372;56.832;60.658;2023-04-16T10:29:01;98128.28;;;13.65;19.35
42727;BME280;28372;56.832;60.658;2023-04-16T10:31:29;98125.91;;;13.49;19.41
42727;BME280;28372;56.832;60.658;2023-04-16T10:33:57;98133.31;;;13.52;19.15
42727;BME280;28372;56.832;60.658;2023-04-16T10:36:25;98129.78;;;13.48;19.47
42727;BME280;28372;56.832;60.658;2023-04-16T10:38:58;98138.75;;;13.63;19.61
42727;BME280;28372;56.832;60.658;2023-04-16T10:41:26;98116.53;;;13.36;19.13
42727;BME280;28372;56.832;60.658;2023-04-16T10:44:04;98127.88;;;13.56;19.51
42727;BME280;28372;56.832;60.658;2023-04-16T10:46:40;98125.00;;;13.31;19.47
42727;BME280;28372;56.832;60.658;2023-04-16T10:49:18;98126.66;;;13.43;19.50
42727;BME280;28372;56.832;60.658;2023-04-16T10:51:56;98119.25;;;13.36;19.24
42727;BME280;28372;56.832;60.658;2023-04-16T10:56:58;98110.53;;;13.05;19.71
42727;BME280;28372;56.832;60.658;2023-04-16T10:59:36;98110.44;;;12.83;19.63
42727;BME280;28372;56.832;60.658;2023-04-16T11:02:12;98122.16;;;13.02;19.84
42727;BME280;28372;56.832;60.658;2023-04-16T11:04:48;98105.03;;;12.91;19.60
42727;BME280;28372;56.832;60.658;2023-04-16T11:07:18;98105.78;;;12.84;19.24
42727;BME280;28372;56.832;60.658;2023-04-16T11:09:55;98101.53;;;12.90;18.96
42727;BME280;28372;56.832;60.658;2023-04-16T11:12:48;98106.50;;;12.77;19.61
42727;BME280;28372;56.832;60.658;2023-04-16T11:15:16;98098.69;;;12.68;19.88
42727;BME280;28372;56.832;60.658;2023-04-16T11:17:49;98101.00;;;12.66;19.70
42727;BME280;28372;56.832;60.658;2023-04-16T11:20:25;98095.94;;;12.65;19.65
42727;BME280;28372;56.832;60.658;2023-04-16T11:22:54;98090.94;;;12.67;19.47
42727;BME280;28372;56.832;60.658;2023-04-16T11:25:28;98097.94;;;12.72;19.80
42727;BME280;28372;56.832;60.658;2023-04-16T11:27:56;98091.50;;;12.39;19.59
42727;BME280;28372;56.832;60.658;2023-04-16T11:32:56;98088.00;;;12.38;19.39
42727;BME280;28372;56.832;60.658;2023-04-16T11:35:24;98083.69;;;12.30;19.94
42727;BME280;28372;56.832;60.658;2023-04-16T11:37:55;98084.88;;;12.32;19.75
42727;BME280;28372;56.832;60.658;2023-04-16T11:40:29;98075.50;;;12.23;19.60
42727;BME280;28372;56.832;60.658;2023-04-16T11:43:16;98079.91;;;12.42;19.70
42727;BME280;28372;56.832;60.658;2023-04-16T11:46:05;98082.19;;;12.40;19.69
42727;BME280;28372;56.832;60.658;2023-04-16T11:48:52;98081.00;;;12.33;19.66
42727;BME280;28372;56.832;60.658;2023-04-16T11:51:20;98075.09;;;12.21;19.56
42727;BME280;28372;56.832;60.658;2023-04-16T11:53:51;98074.31;;;12.20;20.12
42727;BME280;28372;56.832;60.658;2023-04-16T11:56:28;98075.19;;;12.35;19.49
42727;BME280;28372;56.832;60.658;2023-04-16T11:59:18;98074.88;;;12.40;19.63
42727;BME280;28372;56.832;60.658;2023-04-16T12:01:49;98063.47;;;12.20;19.93
42727;BME280;28372;56.832;60.658;2023-04-16T12:04:21;98069.28;;;12.22;19.58
42727;BME280;28372;56.832;60.658;2023-04-16T12:07:11;98064.41;;;12.42;19.48
42727;BME280;28372;56.832;60.658;2023-04-16T12:09:40;98066.50;;;12.11;19.17
42727;BME280;28372;56.832;60.658;2023-04-16T12:12:25;98060.84;;;12.31;19.36
42727;BME280;28372;56.832;60.658;2023-04-16T12:14:53;98062.19;;;12.07;19.73
42727;BME280;28372;56.832;60.658;2023-04-16T12:17:23;98057.53;;;12.04;19.95
42727;BME280;28372;56.832;60.658;2023-04-16T12:19:55;98057.94;;;12.06;19.30
42727;BME280;28372;56.832;60.658;2023-04-16T12:22:31;98062.63;;;12.12;19.75
42727;BME280;28372;56.832;60.658;2023-04-16T12:25:07;98060.31;;;12.11;19.70
42727;BME280;28372;56.832;60.658;2023-04-16T12:27:47;98055.19;;;12.02;19.34
42727;BME280;28372;56.832;60.658;2023-04-16T12:30:24;98052.88;;;12.04;20.22
42727;BME280;28372;56.832;60.658;2023-04-16T12:33:16;98061.50;;;12.17;19.46
42727;BME280;28372;56.832;60.658;2023-04-16T12:35:44;98049.53;;;11.77;19.72
42727;BME280;28372;56.832;60.658;2023-04-16T12:38:12;98039.84;;;11.76;19.67
42727;BME280;28372;56.832;60.658;2023-04-16T12:40:41;98049.75;;;11.61;20.06
42727;BME280;28372;56.832;60.658;2023-04-16T12:43:09;98044.69;;;11.59;19.94
42727;BME280;28372;56.832;60.658;2023-04-16T12:45:38;98040.47;;;11.62;20.10
42727;BME280;28372;56.832;60.658;2023-04-16T12:48:06;98035.81;;;11.25;20.15
42727;BME280;28372;56.832;60.658;2023-04-16T12:50:36;98031.25;;;11.32;20.13
42727;BME280;28372;56.832;60.658;2023-04-16T12:53:07;98030.16;;;11.37;20.00
42727;BME280;28372;56.832;60.658;2023-04-16T12:55:35;98032.47;;;11.35;20.06
42727;BME280;28372;56.832;60.658;2023-04-16T12:58:05;98032.09;;;11.40;20.29
42727;BME280;28372;56.832;60.658;2023-04-16T13:00:33;98035.47;;;11.30;20.46
42727;BME280;28372;56.832;60.658;2023-04-16T13:03:00;98022.31;;;11.28;20.16
42727;BME280;28372;56.832;60.658;2023-04-16T13:05:28;98019.38;;;11.41;20.52
42727;BME280;28372;56.832;60.658;2023-04-16T13:07:55;98026.59;;;11.29;20.47
42727;BME280;28372;56.832;60.658;2023-04-16T13:10:23;98016.31;;;11.08;20.65
42727;BME280;28372;56.832;60.658;2023-04-16T13:12:51;98025.34;;;11.23;20.23
42727;BME280;28372;56.832;60.658;2023-04-16T13:15:18;98014.81;;;11.14;20.67